createdAt,value
2017-04-26T04:00:51.164Z,76
2017-04-26T04:01:16.661Z,80
2017-04-26T04:01:42.103Z,84
2017-04-26T04:02:07.673Z,88
2017-04-26T04:02:33.181Z,96
2017-04-26T04:02:58.597Z,96
2017-04-26T04:03:24.149Z,100
2017-04-26T04:03:49.517Z,104
2017-04-26T04:04:15.012Z,108
2017-04-26T04:04:40.503Z,116
2017-04-26T04:05:05.969Z,120
2017-04-26T04:05:31.490Z,124
2017-04-26T04:05:56.994Z,128
2017-04-26T04:06:22.517Z,132
2017-04-26T04:06:47.890Z,140
2017-04-26T04:07:13.402Z,144
2017-04-26T04:07:38.867Z,152
2017-04-26T04:08:04.272Z,156
2017-04-26T04:08:29.734Z,164
2017-04-26T04:08:55.223Z,172
2017-04-26T04:09:20.685Z,176
2017-04-26T04:09:46.270Z,184
2017-04-26T04:10:11.672Z,192
2017-04-26T04:10:37.324Z,204
2017-04-26T04:11:02.928Z,212
2017-04-26T04:11:28.351Z,220
2017-04-26T04:11:53.750Z,228
2017-04-26T04:12:19.360Z,236
2017-04-26T04:12:44.952Z,244
2017-04-26T04:13:10.581Z,248
2017-04-26T04:13:35.937Z,252
2017-04-26T04:14:01.433Z,260
2017-04-26T04:14:26.911Z,268
2017-04-26T04:14:52.359Z,276
2017-04-26T04:15:17.850Z,288
2017-04-26T04:15:43.267Z,296
2017-04-26T04:16:08.739Z,308
2017-04-26T04:16:34.402Z,316
2017-04-26T04:16:59.950Z,328
2017-04-26T04:17:25.448Z,336
2017-04-26T04:17:51.071Z,348
2017-04-26T04:18:16.426Z,356
2017-04-26T04:18:41.947Z,368
2017-04-26T04:19:07.443Z,376
2017-04-26T04:19:32.947Z,388
2017-04-26T04:19:58.439Z,400
2017-04-26T04:20:23.864Z,412
2017-04-26T04:20:49.569Z,420
2017-04-26T04:21:14.805Z,432
2017-04-26T04:21:40.254Z,444
2017-04-26T04:22:05.811Z,456
2017-04-26T04:22:31.251Z,468
2017-04-26T04:22:56.774Z,480
2017-04-26T04:23:22.214Z,492
2017-04-26T04:23:47.707Z,508
2017-04-26T04:24:13.251Z,520
2017-04-26T04:24:38.706Z,536
2017-04-26T04:25:04.200Z,548
2017-04-26T04:25:29.682Z,560
2017-04-26T04:25:55.196Z,572
2017-04-26T04:26:20.627Z,588
2017-04-26T04:26:46.072Z,600
2017-04-26T04:27:11.570Z,608
2017-04-26T04:27:37.055Z,624
2017-04-26T04:28:02.543Z,636
2017-04-26T04:28:28.017Z,652
2017-04-26T04:28:53.504Z,664
2017-04-26T04:29:18.942Z,676
2017-04-26T04:29:44.453Z,692
2017-04-26T04:30:09.901Z,704
2017-04-26T04:30:35.355Z,720
2017-04-26T04:31:00.845Z,736
2017-04-26T04:31:26.296Z,752
2017-04-26T04:31:51.831Z,768
2017-04-26T04:32:17.235Z,784
2017-04-26T04:32:42.689Z,796
2017-04-26T04:33:08.154Z,812
2017-04-26T04:33:33.636Z,824
2017-04-26T04:33:59.114Z,836
2017-04-26T04:34:24.571Z,852
2017-04-26T04:34:50.042Z,864
2017-04-26T04:35:15.570Z,876
2017-04-26T04:35:41.058Z,884
2017-04-26T04:36:06.524Z,900
2017-04-26T04:36:32.007Z,912
2017-04-26T04:36:57.480Z,928
2017-04-26T04:37:22.910Z,936
2017-04-26T04:37:48.413Z,948
2017-04-26T04:38:13.842Z,960
2017-04-26T04:38:39.444Z,972
2017-04-26T04:39:05.082Z,984
2017-04-26T04:39:30.545Z,1000
2017-04-26T04:39:56.016Z,1008
2017-04-26T04:40:21.559Z,1024
2017-04-26T04:40:47.009Z,1040
2017-04-26T04:41:12.496Z,1052
2017-04-26T04:41:37.980Z,1064
2017-04-26T04:42:03.387Z,1076
2017-04-26T04:42:28.901Z,1088
2017-04-26T04:42:54.549Z,1104
2017-04-26T04:43:19.993Z,1120
2017-04-26T04:43:45.465Z,1132
2017-04-26T04:44:10.966Z,1144
2017-04-26T04:44:36.420Z,1160
2017-04-26T04:45:01.864Z,1172
2017-04-26T04:45:27.350Z,1192
2017-04-26T04:45:52.841Z,1208
2017-04-26T04:46:18.295Z,1224
2017-04-26T04:46:43.786Z,1240
2017-04-26T04:47:09.206Z,1260
2017-04-26T04:47:34.706Z,1280
2017-04-26T04:48:00.152Z,1300
2017-04-26T04:48:25.632Z,1324
2017-04-26T04:48:51.088Z,1352
2017-04-26T04:49:16.554Z,1380
2017-04-26T04:49:42.066Z,1416
2017-04-26T04:50:07.505Z,1460
2017-04-26T04:50:32.977Z,1496
2017-04-26T04:50:58.431Z,1528
2017-04-26T04:51:23.913Z,1544
2017-04-26T04:51:49.404Z,1524
2017-04-26T04:52:14.903Z,1500
2017-04-26T04:52:40.342Z,1496
2017-04-26T04:53:05.812Z,1508
2017-04-26T04:53:31.273Z,1524
2017-04-26T04:53:56.710Z,1548
2017-04-26T04:54:22.184Z,1576
2017-04-26T04:54:47.663Z,1584
2017-04-26T04:55:13.186Z,1584
2017-04-26T04:55:38.704Z,1564
2017-04-26T04:56:04.160Z,1556
2017-04-26T04:56:29.597Z,1548
2017-04-26T04:56:55.074Z,1544
2017-04-26T04:57:20.648Z,1536
2017-04-26T04:57:46.000Z,1536
2017-04-26T04:58:11.560Z,1536
2017-04-26T04:58:36.959Z,1540
2017-04-26T04:59:02.443Z,1548
2017-04-26T04:59:27.910Z,1560
2017-04-26T04:59:53.362Z,1576
2017-04-26T05:00:18.826Z,1592
2017-04-26T05:00:44.299Z,1616
2017-04-26T05:01:09.790Z,1628
2017-04-26T05:01:35.285Z,1636
2017-04-26T05:02:00.754Z,1648
2017-04-26T05:02:26.217Z,1656
2017-04-26T05:02:51.739Z,1676
2017-04-26T05:03:17.199Z,1684
2017-04-26T05:03:43.024Z,1680
2017-04-26T05:04:08.467Z,1688
2017-04-26T05:04:33.919Z,1696
2017-04-26T05:04:59.440Z,1708
2017-04-26T05:05:24.944Z,1724
2017-04-26T05:05:50.439Z,1736
2017-04-26T05:06:15.921Z,1748
2017-04-26T05:06:41.404Z,1764
2017-04-26T05:07:06.875Z,1780
2017-04-26T05:07:32.319Z,1808
2017-04-26T05:07:57.793Z,1836
2017-04-26T05:08:23.291Z,1844
2017-04-26T05:08:48.756Z,1848
2017-04-26T05:09:14.224Z,1888
2017-04-26T05:09:39.678Z,1924
2017-04-26T05:10:05.172Z,1956
2017-04-26T05:10:30.714Z,1980
2017-04-26T05:10:56.086Z,2020
2017-04-26T05:11:21.548Z,2052
2017-04-26T05:11:47.283Z,2072
2017-04-26T05:12:12.772Z,2132
2017-04-26T05:12:38.209Z,2220
2017-04-26T05:13:03.975Z,2336
2017-04-26T05:13:29.411Z,2444
2017-04-26T05:13:54.872Z,2520
2017-04-26T05:14:20.483Z,2544
2017-04-26T05:14:45.867Z,2544
2017-04-26T05:15:11.296Z,2552
2017-04-26T05:15:36.818Z,2564
2017-04-26T05:16:02.359Z,2572
2017-04-26T05:16:27.811Z,2584
2017-04-26T05:16:53.334Z,2620
2017-04-26T05:17:18.924Z,2672
2017-04-26T05:17:44.325Z,2716
2017-04-26T05:18:09.770Z,2736
2017-04-26T05:18:35.245Z,2724
2017-04-26T05:19:00.740Z,2700
2017-04-26T05:19:26.133Z,2688
2017-04-26T05:19:51.671Z,2704
2017-04-26T05:20:17.206Z,2712
2017-04-26T05:20:42.823Z,2720
2017-04-26T05:21:08.359Z,2728
2017-04-26T05:21:33.897Z,2736
2017-04-26T05:21:59.311Z,2736
2017-04-26T05:22:24.815Z,2720
2017-04-26T05:22:50.252Z,2708
2017-04-26T05:23:15.749Z,2704
2017-04-26T05:23:41.216Z,2700
2017-04-26T05:24:06.725Z,2700
2017-04-26T05:24:32.144Z,2720
2017-04-26T05:24:57.628Z,2736
2017-04-26T05:25:23.111Z,2756
2017-04-26T05:25:48.649Z,2776
2017-04-26T05:26:14.101Z,2812
2017-04-26T05:26:39.528Z,2868
2017-04-26T05:27:05.080Z,2928
2017-04-26T05:27:30.506Z,2976
2017-04-26T05:27:56.004Z,3040
2017-04-26T05:28:21.514Z,3100
2017-04-26T05:28:46.985Z,3164
2017-04-26T05:29:12.444Z,3224
2017-04-26T05:29:37.903Z,3260
2017-04-26T05:30:03.385Z,3272
2017-04-26T05:30:28.913Z,3308
2017-04-26T05:30:54.390Z,3352
2017-04-26T05:31:19.889Z,3412
2017-04-26T05:31:45.380Z,3472
2017-04-26T05:32:11.017Z,3548
2017-04-26T05:32:36.376Z,3636
2017-04-26T05:33:01.858Z,3668
2017-04-26T05:33:27.296Z,3644
2017-04-26T05:33:52.783Z,3616
2017-04-26T05:34:18.311Z,3624
2017-04-26T05:34:43.777Z,3632
2017-04-26T05:35:09.244Z,3620
2017-04-26T05:35:34.711Z,3580
2017-04-26T05:36:00.132Z,3540
2017-04-26T05:36:25.821Z,3528
2017-04-26T05:36:51.322Z,3540
2017-04-26T05:37:16.883Z,3588
2017-04-26T05:37:42.323Z,3648
2017-04-26T05:38:07.848Z,3732
2017-04-26T05:38:33.256Z,3788
2017-04-26T05:38:58.705Z,3844
2017-04-26T05:39:24.174Z,3908
2017-04-26T05:39:49.655Z,3996
2017-04-26T05:40:15.248Z,4080
2017-04-26T05:40:40.696Z,4168
2017-04-26T05:41:06.139Z,4232
2017-04-26T05:41:31.589Z,4256
2017-04-26T05:41:57.068Z,4268
2017-04-26T05:42:22.587Z,4248
2017-04-26T05:42:48.038Z,4160
2017-04-26T05:43:13.552Z,4084
2017-04-26T05:43:39.203Z,4052
2017-04-26T05:44:04.906Z,4036
2017-04-26T05:44:30.502Z,4028
2017-04-26T05:44:55.926Z,4016
2017-04-26T05:45:21.457Z,4016
2017-04-26T05:45:46.919Z,4016
2017-04-26T05:46:12.485Z,3984
2017-04-26T05:46:37.998Z,3964
2017-04-26T05:47:03.804Z,3976
2017-04-26T05:47:29.102Z,3980
2017-04-26T05:47:54.875Z,3980
2017-04-26T05:48:20.398Z,3972
2017-04-26T05:48:46.105Z,3980
2017-04-26T05:49:11.695Z,4020
2017-04-26T05:49:37.410Z,4064
2017-04-26T05:50:02.755Z,4108
2017-04-26T05:50:28.559Z,4140
2017-04-26T05:50:53.921Z,4124
2017-04-26T05:51:19.438Z,4164
2017-04-26T05:51:44.878Z,4228
2017-04-26T05:52:10.467Z,4312
2017-04-26T05:52:35.941Z,4384
2017-04-26T05:53:01.465Z,4384
2017-04-26T05:53:26.902Z,4296
2017-04-26T05:53:52.432Z,4208
2017-04-26T05:54:17.898Z,4196
2017-04-26T05:54:43.434Z,4204
2017-04-26T05:55:08.951Z,4224
2017-04-26T05:55:34.559Z,4308
2017-04-26T05:56:00.068Z,4396
2017-04-26T05:56:25.480Z,4432
2017-04-26T05:56:50.971Z,4472
2017-04-26T05:57:16.472Z,4532
2017-04-26T05:57:42.057Z,4600
2017-04-26T05:58:07.414Z,4628
2017-04-26T05:58:32.919Z,4652
2017-04-26T05:58:58.426Z,4708
2017-04-26T05:59:23.860Z,4736
2017-04-26T05:59:49.359Z,4768
2017-04-26T06:00:14.819Z,4860
2017-04-26T06:00:40.318Z,4988
2017-04-26T06:01:05.758Z,5092
2017-04-26T06:01:31.207Z,5152
2017-04-26T06:01:56.708Z,5188
2017-04-26T06:02:22.211Z,5292
2017-04-26T06:02:47.675Z,5392
2017-04-26T06:03:13.166Z,5364
2017-04-26T06:03:38.615Z,5320
2017-04-26T06:04:04.150Z,5264
2017-04-26T06:04:29.608Z,5200
2017-04-26T06:04:55.134Z,5156
2017-04-26T06:05:20.625Z,5104
2017-04-26T06:05:46.119Z,5084
2017-04-26T06:06:11.572Z,5080
2017-04-26T06:06:37.107Z,5096
2017-04-26T06:07:02.591Z,5160
2017-04-26T06:07:28.076Z,5224
2017-04-26T06:07:53.558Z,5276
2017-04-26T06:08:19.070Z,5316
2017-04-26T06:08:44.565Z,5336
2017-04-26T06:09:10.006Z,5360
2017-04-26T06:09:35.472Z,5404
2017-04-26T06:10:00.937Z,5464
2017-04-26T06:10:26.579Z,5504
2017-04-26T06:10:52.124Z,5564
2017-04-26T06:11:17.561Z,5640
2017-04-26T06:11:43.026Z,5720
2017-04-26T06:12:08.483Z,5788
2017-04-26T06:12:33.990Z,5740
2017-04-26T06:12:59.491Z,5672
2017-04-26T06:13:24.953Z,5668
2017-04-26T06:13:50.431Z,5664
2017-04-26T06:14:15.964Z,5668
2017-04-26T06:14:41.443Z,5692
2017-04-26T06:15:06.950Z,5672
2017-04-26T06:15:32.526Z,5632
2017-04-26T06:15:57.995Z,5536
2017-04-26T06:16:23.468Z,5464
2017-04-26T06:16:49.011Z,5392
2017-04-26T06:17:14.539Z,5336
2017-04-26T06:17:39.991Z,5312
2017-04-26T06:18:05.445Z,5328
2017-04-26T06:18:30.951Z,5324
2017-04-26T06:18:56.382Z,5356
2017-04-26T06:19:21.944Z,5396
2017-04-26T06:19:47.582Z,5396
2017-04-26T06:20:13.179Z,5400
2017-04-26T06:20:38.738Z,5412
2017-04-26T06:21:04.340Z,5468
2017-04-26T06:21:29.906Z,5560
2017-04-26T06:21:55.355Z,5640
2017-04-26T06:22:20.858Z,5700
2017-04-26T06:22:46.289Z,5744
2017-04-26T06:23:11.820Z,5768
2017-04-26T06:23:37.533Z,5736
2017-04-26T06:24:03.038Z,5644
2017-04-26T06:24:28.494Z,5556
2017-04-26T06:24:54.042Z,5504
2017-04-26T06:25:19.477Z,5484
2017-04-26T06:25:44.957Z,5488
2017-04-26T06:26:10.423Z,5492
2017-04-26T06:26:35.898Z,5500
2017-04-26T06:27:01.354Z,5504
2017-04-26T06:27:26.884Z,5536
2017-04-26T06:27:52.480Z,5584
2017-04-26T06:28:17.872Z,5648
2017-04-26T06:28:43.327Z,5700
2017-04-26T06:29:08.796Z,5744
2017-04-26T06:29:34.241Z,5776
2017-04-26T06:29:59.711Z,5784
2017-04-26T06:30:25.178Z,5784
2017-04-26T06:30:50.683Z,5796
2017-04-26T06:31:16.178Z,5832
2017-04-26T06:31:41.582Z,5908
2017-04-26T06:32:07.064Z,5984
2017-04-26T06:32:32.618Z,6076
2017-04-26T06:32:58.057Z,6160
2017-04-26T06:33:23.527Z,6236
2017-04-26T06:33:48.982Z,6276
2017-04-26T06:34:14.447Z,6272
2017-04-26T06:34:39.942Z,6228
2017-04-26T06:35:05.444Z,6176
2017-04-26T06:35:30.901Z,6196
2017-04-26T06:35:56.402Z,6256
2017-04-26T06:36:21.824Z,6308
2017-04-26T06:36:47.324Z,6368
2017-04-26T06:37:12.849Z,6448
2017-04-26T06:37:38.349Z,6540
2017-04-26T06:38:03.873Z,6616
2017-04-26T06:38:29.226Z,6704
2017-04-26T06:38:54.726Z,6792
2017-04-26T06:39:20.201Z,6900
2017-04-26T06:39:45.648Z,6992
2017-04-26T06:40:11.106Z,7060
2017-04-26T06:40:36.541Z,7136
2017-04-26T06:41:02.060Z,7228
2017-04-26T06:41:27.579Z,7336
2017-04-26T06:41:53.060Z,7500
2017-04-26T06:42:18.551Z,7712
2017-04-26T06:42:44.017Z,7880
2017-04-26T06:43:09.528Z,7952
2017-04-26T06:43:35.034Z,7968
2017-04-26T06:44:00.506Z,7900
2017-04-26T06:45:09.198Z,7792
2017-04-26T06:45:34.659Z,7788
2017-04-26T06:46:00.156Z,7788
2017-04-26T06:46:25.616Z,7764
2017-04-26T06:46:51.111Z,7776
2017-04-26T06:47:16.605Z,7824
2017-04-26T06:47:42.111Z,7836
2017-04-26T06:48:07.562Z,7848
2017-04-26T06:48:32.994Z,7816
2017-04-26T06:48:58.464Z,7744
2017-04-26T06:49:23.899Z,7712
2017-04-26T06:49:49.371Z,7728
2017-04-26T06:50:14.853Z,7804
2017-04-26T06:50:40.348Z,7916
2017-04-26T06:51:05.776Z,7972
2017-04-26T06:51:31.354Z,7984
2017-04-26T06:51:56.882Z,7968
2017-04-26T06:52:22.314Z,7960
2017-04-26T06:52:47.812Z,7956
2017-04-26T06:53:13.268Z,7936
2017-04-26T06:53:38.738Z,7880
2017-04-26T06:54:04.187Z,7800
2017-04-26T06:54:29.650Z,7780
2017-04-26T06:54:55.162Z,7824
2017-04-26T06:55:20.566Z,7856
2017-04-26T06:55:46.028Z,7848
2017-04-26T06:56:11.518Z,7872
2017-04-26T06:56:37.036Z,7876
2017-04-26T06:57:02.488Z,7844
2017-04-26T06:57:27.998Z,7812
2017-04-26T06:57:53.430Z,7816
2017-04-26T06:58:18.929Z,7820
2017-04-26T06:58:44.384Z,7832
2017-04-26T06:59:09.864Z,7828
2017-04-26T06:59:35.429Z,7800
2017-04-26T07:00:00.754Z,7780
2017-04-26T07:00:26.278Z,7760
2017-04-26T07:00:51.697Z,7736
2017-04-26T07:01:17.214Z,7700
2017-04-26T07:01:42.655Z,7648
2017-04-26T07:02:08.112Z,7592
2017-04-26T07:02:33.590Z,7580
2017-04-26T07:02:59.093Z,7564
2017-04-26T07:03:24.599Z,7548
2017-04-26T07:03:50.067Z,7520
2017-04-26T07:04:15.529Z,7488
2017-04-26T07:04:41.023Z,7472
2017-04-26T07:05:06.478Z,7488
2017-04-26T07:05:31.977Z,7548
2017-04-26T07:05:57.420Z,7652
2017-04-26T07:06:22.893Z,7768
2017-04-26T07:06:48.354Z,7868
2017-04-26T07:07:13.888Z,7944
2017-04-26T07:07:39.349Z,8020
2017-04-26T07:08:04.843Z,8092
2017-04-26T07:08:30.288Z,8184
2017-04-26T07:08:55.798Z,8296
2017-04-26T07:09:21.258Z,8404
2017-04-26T07:09:46.716Z,8492
2017-04-26T07:10:12.190Z,8596
2017-04-26T07:10:37.793Z,8692
2017-04-26T07:11:03.126Z,8776
2017-04-26T07:11:28.541Z,8848
2017-04-26T07:11:54.090Z,8900
2017-04-26T07:12:19.566Z,8948
2017-04-26T07:12:45.131Z,8992
2017-04-26T07:13:10.692Z,9040
2017-04-26T07:13:36.235Z,9096
2017-04-26T07:14:01.799Z,9168
2017-04-26T07:14:27.373Z,9276
2017-04-26T07:14:52.878Z,9404
2017-04-26T07:15:18.436Z,9516
2017-04-26T07:15:43.866Z,9620
2017-04-26T07:16:09.390Z,9728
2017-04-26T07:16:34.854Z,9804
2017-04-26T07:17:00.319Z,9888
2017-04-26T07:17:25.832Z,9948
2017-04-26T07:17:51.399Z,10004
2017-04-26T07:18:17.050Z,10016
2017-04-26T07:18:42.943Z,10000
2017-04-26T07:19:08.355Z,9980
2017-04-26T07:19:33.946Z,9984
2017-04-26T07:19:59.449Z,9984
2017-04-26T07:20:24.894Z,9996
2017-04-26T07:20:50.389Z,10000
2017-04-26T07:21:15.855Z,10024
2017-04-26T07:21:41.342Z,10088
2017-04-26T07:22:06.809Z,10276
2017-04-26T07:22:32.338Z,10288
2017-04-26T07:22:58.042Z,10308
2017-04-26T07:23:23.956Z,10360
2017-04-26T07:23:49.665Z,10412
2017-04-26T07:24:15.071Z,10472
2017-04-26T07:24:40.524Z,10560
2017-04-26T07:25:06.048Z,10676
2017-04-26T07:25:31.498Z,10784
2017-04-26T07:25:56.993Z,10892
2017-04-26T07:26:22.435Z,10932
2017-04-26T07:26:47.883Z,10968
2017-04-26T07:27:13.357Z,11008
2017-04-26T07:27:38.857Z,11044
2017-04-26T07:28:04.322Z,11080
2017-04-26T07:28:29.797Z,11084
2017-04-26T07:28:55.322Z,11092
2017-04-26T07:29:20.817Z,11080
2017-04-26T07:29:46.258Z,11044
2017-04-26T07:30:11.815Z,11080
2017-04-26T07:30:37.286Z,11104
2017-04-26T07:31:02.903Z,11108
2017-04-26T07:31:28.437Z,11124
2017-04-26T07:31:53.863Z,11180
2017-04-26T07:32:19.615Z,11204
2017-04-26T07:32:45.230Z,11160
2017-04-26T07:33:10.690Z,11120
2017-04-26T07:33:36.177Z,11136
2017-04-26T07:34:01.775Z,11152
2017-04-26T07:34:27.323Z,11148
2017-04-26T07:34:52.795Z,11108
2017-04-26T07:35:18.291Z,11028
2017-04-26T07:35:43.792Z,10952
2017-04-26T07:36:09.217Z,10912
2017-04-26T07:36:34.686Z,10852
2017-04-26T07:37:00.146Z,10784
2017-04-26T07:37:25.634Z,10740
2017-04-26T07:37:51.082Z,10664
2017-04-26T07:38:16.580Z,10556
2017-04-26T07:38:42.052Z,10480
2017-04-26T07:39:07.526Z,10496
2017-04-26T07:39:33.000Z,10464
2017-04-26T07:39:58.591Z,10432
2017-04-26T07:40:23.944Z,10448
2017-04-26T07:40:49.522Z,10500
2017-04-26T07:41:15.005Z,10540
2017-04-26T07:41:40.513Z,10552
2017-04-26T07:42:06.009Z,10552
2017-04-26T07:42:31.506Z,10568
2017-04-26T07:42:56.982Z,10604
2017-04-26T07:43:22.552Z,10648
2017-04-26T07:43:47.992Z,10732
2017-04-26T07:44:13.514Z,10804
2017-04-26T07:44:38.993Z,10896
2017-04-26T07:45:04.498Z,10988
2017-04-26T07:45:30.042Z,11056
2017-04-26T07:45:55.477Z,11124
2017-04-26T07:46:20.934Z,11152
2017-04-26T07:46:46.457Z,11160
2017-04-26T07:47:12.003Z,11252
2017-04-26T07:47:37.480Z,11252
2017-04-26T07:48:02.997Z,11204
2017-04-26T07:48:28.490Z,11092
2017-04-26T07:48:53.988Z,10936
2017-04-26T07:49:19.444Z,10832
2017-04-26T07:49:44.941Z,10764
2017-04-26T07:50:10.403Z,10672
2017-04-26T07:50:35.960Z,10564
2017-04-26T07:51:01.439Z,10512
2017-04-26T07:51:26.909Z,10576
2017-04-26T07:51:52.338Z,10564
2017-04-26T07:52:17.831Z,10500
2017-04-26T07:52:43.320Z,10396
2017-04-26T07:53:08.786Z,10260
2017-04-26T07:53:34.230Z,10080
2017-04-26T07:53:59.753Z,9836
2017-04-26T07:54:25.289Z,9604
2017-04-26T07:54:50.693Z,9372
2017-04-26T07:55:16.199Z,9152
2017-04-26T07:55:41.697Z,8944
2017-04-26T07:56:07.223Z,8732
2017-04-26T07:56:32.718Z,8512
2017-04-26T07:56:58.130Z,8324
2017-04-26T07:57:23.608Z,8192
2017-04-26T07:57:49.087Z,8072
2017-04-26T07:58:14.622Z,7928
2017-04-26T07:58:40.139Z,7876
2017-04-26T07:59:05.583Z,7848
2017-04-26T07:59:31.065Z,7824
2017-04-26T07:59:56.545Z,7756
2017-04-26T08:00:21.994Z,7648
2017-04-26T08:00:47.441Z,7472
2017-04-26T08:01:12.932Z,7232
2017-04-26T08:01:38.364Z,6944
2017-04-26T08:02:03.951Z,6716
2017-04-26T08:02:29.371Z,6568
2017-04-26T08:02:54.852Z,6448
2017-04-26T08:03:20.331Z,6268
2017-04-26T08:03:45.863Z,6140
2017-04-26T08:04:11.299Z,6024
2017-04-26T08:04:36.744Z,5968
2017-04-26T08:05:02.249Z,5948
2017-04-26T08:05:27.733Z,5992
2017-04-26T08:05:53.184Z,6096
2017-04-26T08:06:18.652Z,6268
2017-04-26T08:06:44.174Z,6312
2017-04-26T08:07:09.595Z,6308
2017-04-26T08:07:35.072Z,6416
2017-04-26T08:08:00.516Z,6572
2017-04-26T08:08:25.982Z,6736
2017-04-26T08:08:51.609Z,6928
2017-04-26T08:09:17.064Z,7148
2017-04-26T08:09:42.606Z,7232
2017-04-26T08:10:08.093Z,7220
2017-04-26T08:10:33.601Z,7144
2017-04-26T08:10:59.155Z,7016
2017-04-26T08:11:24.654Z,6964
2017-04-26T08:11:50.102Z,6984
2017-04-26T08:12:15.567Z,6968
2017-04-26T08:12:41.044Z,6860
2017-04-26T08:13:06.493Z,6700
2017-04-26T08:13:32.017Z,6628
2017-04-26T08:13:57.681Z,6588
2017-04-26T08:14:23.494Z,6536
2017-04-26T08:14:49.003Z,6492
2017-04-26T08:15:14.684Z,6420
2017-04-26T08:15:40.143Z,6336
2017-04-26T08:16:05.676Z,6300
2017-04-26T08:16:31.078Z,6260
2017-04-26T08:16:56.566Z,6168
2017-04-26T08:17:22.020Z,6064
2017-04-26T08:17:47.553Z,5948
2017-04-26T08:18:13.008Z,5860
2017-04-26T08:18:38.493Z,5932
2017-04-26T08:19:03.958Z,5912
2017-04-26T08:19:29.459Z,5968
2017-04-26T08:19:54.932Z,5844
2017-04-26T08:20:20.394Z,5752
2017-04-26T08:20:45.878Z,5784
2017-04-26T08:21:11.335Z,5872
2017-04-26T08:21:36.902Z,5872
2017-04-26T08:22:02.383Z,6016
2017-04-26T08:22:27.866Z,6064
2017-04-26T08:22:53.358Z,6056
2017-04-26T08:23:18.880Z,6132
2017-04-26T08:23:44.452Z,6248
2017-04-26T08:24:09.891Z,6344
2017-04-26T08:24:35.360Z,6400
2017-04-26T08:25:00.903Z,6440
2017-04-26T08:25:26.373Z,6516
2017-04-26T08:25:51.844Z,6596
2017-04-26T08:26:17.290Z,6672
2017-04-26T08:26:42.752Z,6628
2017-04-26T08:27:08.264Z,6592
2017-04-26T08:27:33.759Z,6492
2017-04-26T08:27:59.179Z,6352
2017-04-26T08:28:24.627Z,6256
2017-04-26T08:28:50.292Z,6176
2017-04-26T08:29:15.766Z,6136
2017-04-26T08:29:41.478Z,6036
2017-04-26T08:30:07.415Z,5956
2017-04-26T08:30:32.779Z,5976
2017-04-26T08:30:59.138Z,6024
2017-04-26T08:31:24.566Z,6068
2017-04-26T08:31:50.028Z,6076
2017-04-26T08:32:15.547Z,6136
2017-04-26T08:32:40.954Z,6220
2017-04-26T08:33:06.443Z,6356
2017-04-26T08:33:31.948Z,6556
2017-04-26T08:33:57.323Z,6796
2017-04-26T08:34:22.788Z,7068
2017-04-26T08:34:48.250Z,7296
2017-04-26T08:35:13.715Z,7416
2017-04-26T08:35:39.191Z,7492
2017-04-26T08:36:04.697Z,7528
2017-04-26T08:36:30.137Z,7516
2017-04-26T08:36:55.935Z,7548
2017-04-26T08:37:21.799Z,7620
2017-04-26T08:37:47.267Z,7764
2017-04-26T08:38:12.769Z,7956
2017-04-26T08:38:38.236Z,7660
2017-04-26T08:39:03.698Z,7504
2017-04-26T08:39:29.204Z,7484
2017-04-26T08:39:54.664Z,7488
2017-04-26T08:40:20.133Z,7540
2017-04-26T08:40:45.612Z,7580
2017-04-26T08:41:11.172Z,7608
2017-04-26T08:41:36.841Z,7588
2017-04-26T08:42:02.341Z,7548
2017-04-26T08:42:27.781Z,7136
2017-04-26T08:42:53.251Z,6844
2017-04-26T08:43:18.732Z,6764
2017-04-26T08:43:44.201Z,6752
2017-04-26T08:44:09.782Z,6752
2017-04-26T08:44:35.264Z,6720
2017-04-26T08:45:00.713Z,6700
2017-04-26T08:45:26.217Z,6596
2017-04-26T08:45:51.735Z,6732
2017-04-26T08:46:17.198Z,6400
2017-04-26T08:46:42.727Z,6300
2017-04-26T08:47:08.107Z,6244
2017-04-26T08:47:33.588Z,6240
2017-04-26T08:47:59.224Z,6268
2017-04-26T08:48:24.640Z,6480
2017-04-26T08:48:50.260Z,6420
2017-04-26T08:49:15.799Z,6420
2017-04-26T08:49:41.247Z,6360
2017-04-26T08:50:06.804Z,6424
2017-04-26T08:50:32.203Z,6656
2017-04-26T08:50:57.691Z,6568
2017-04-26T08:51:23.170Z,6552
2017-04-26T08:51:48.635Z,6564
2017-04-26T08:52:14.088Z,6664
2017-04-26T08:52:39.591Z,6772
2017-04-26T08:53:05.150Z,6816
2017-04-26T08:53:30.674Z,6908
2017-04-26T08:53:56.145Z,6912
2017-04-26T08:54:21.691Z,6836
2017-04-26T08:54:47.247Z,6820
2017-04-26T08:55:12.695Z,6808
2017-04-26T08:55:38.163Z,6804
2017-04-26T08:56:03.611Z,6820
2017-04-26T08:56:29.077Z,6848
2017-04-26T08:56:54.611Z,6932
2017-04-26T08:57:20.070Z,7052
2017-04-26T08:57:45.540Z,7152
2017-04-26T08:58:11.037Z,7248
2017-04-26T08:58:36.516Z,7376
2017-04-26T08:59:02.042Z,7536
2017-04-26T08:59:27.561Z,7748
2017-04-26T08:59:53.057Z,7928
2017-04-26T09:00:18.553Z,8048
2017-04-26T09:00:44.084Z,8192
2017-04-26T09:01:09.637Z,8372
2017-04-26T09:01:35.207Z,8516
2017-04-26T09:02:00.635Z,8768
2017-04-26T09:02:26.153Z,9260
2017-04-26T09:02:51.572Z,9716
2017-04-26T09:03:17.035Z,10296
2017-04-26T09:03:42.534Z,10924
2017-04-26T09:04:08.122Z,11368
2017-04-26T09:04:33.693Z,11784
2017-04-26T09:04:59.404Z,12188
2017-04-26T09:05:24.819Z,12736
2017-04-26T09:05:50.288Z,13328
2017-04-26T09:06:15.915Z,13864
2017-04-26T09:06:41.367Z,14468
2017-04-26T09:07:06.822Z,15144
2017-04-26T09:07:32.428Z,15784
2017-04-26T09:07:57.929Z,16084
2017-04-26T09:08:23.389Z,16344
2017-04-26T09:08:48.924Z,16704
2017-04-26T09:09:14.331Z,16576
2017-04-26T09:09:39.793Z,16672
2017-04-26T09:10:05.273Z,16960
2017-04-26T09:10:30.770Z,17472
2017-04-26T09:10:56.284Z,18304
2017-04-26T09:11:21.824Z,18560
2017-04-26T09:11:47.309Z,18304
2017-04-26T09:12:12.793Z,17696
2017-04-26T09:12:38.230Z,16608
2017-04-26T09:13:03.756Z,15480
2017-04-26T09:13:29.249Z,14404
2017-04-26T09:13:54.747Z,13800
2017-04-26T09:14:20.227Z,13136
2017-04-26T09:14:45.668Z,12764
2017-04-26T09:15:11.128Z,12312
2017-04-26T09:15:36.638Z,12008
2017-04-26T09:16:02.100Z,12040
2017-04-26T09:16:27.668Z,11932
2017-04-26T09:16:53.219Z,11556
2017-04-26T09:17:18.665Z,11604
2017-04-26T09:17:44.132Z,11592
2017-04-26T09:18:09.613Z,11484
2017-04-26T09:18:35.128Z,11240
2017-04-26T09:19:00.623Z,10960
2017-04-26T09:19:26.043Z,10600
2017-04-26T09:19:51.477Z,10352
2017-04-26T09:20:16.957Z,10148
2017-04-26T09:20:42.406Z,9872
2017-04-26T09:21:07.858Z,9584
2017-04-26T09:21:33.354Z,9208
2017-04-26T09:21:58.794Z,8872
2017-04-26T09:22:24.279Z,8508
2017-04-26T09:22:49.736Z,8232
2017-04-26T09:23:15.200Z,8108
2017-04-26T09:23:40.694Z,8016
2017-04-26T09:24:06.172Z,7824
2017-04-26T09:24:31.637Z,7560
2017-04-26T09:24:57.234Z,7300
2017-04-26T09:25:22.628Z,7184
2017-04-26T09:25:48.091Z,7132
2017-04-26T09:26:13.610Z,7148
2017-04-26T09:26:39.070Z,7192
2017-04-26T09:27:04.576Z,7248
2017-04-26T09:27:30.024Z,7308
2017-04-26T09:27:55.519Z,7412
2017-04-26T09:28:21.054Z,7540
2017-04-26T09:28:46.436Z,7688
2017-04-26T09:29:11.903Z,7832
2017-04-26T09:29:37.366Z,8012
2017-04-26T09:30:02.887Z,8204
2017-04-26T09:30:28.342Z,8400
2017-04-26T09:30:53.806Z,8588
2017-04-26T09:31:19.322Z,8792
2017-04-26T09:31:44.764Z,9000
2017-04-26T09:32:10.249Z,9212
2017-04-26T09:32:35.727Z,9392
2017-04-26T09:33:01.214Z,9552
2017-04-26T09:33:26.701Z,9704
2017-04-26T09:33:52.279Z,9856
2017-04-26T09:34:17.942Z,10004
2017-04-26T09:34:43.229Z,10164
2017-04-26T09:35:08.702Z,10316
2017-04-26T09:35:34.309Z,10448
2017-04-26T09:35:59.728Z,10580
2017-04-26T09:36:25.245Z,10684
2017-04-26T09:36:50.705Z,10756
2017-04-26T09:37:16.217Z,10844
2017-04-26T09:37:41.747Z,10956
2017-04-26T09:38:07.236Z,11052
2017-04-26T09:38:32.664Z,11140
2017-04-26T09:38:58.197Z,11240
2017-04-26T09:39:23.682Z,11328
2017-04-26T09:39:49.184Z,11436
2017-04-26T09:40:14.925Z,11564